Terminal Aerodrome Forecast
Issued by NWS

Home | Current Version | Previous Version | Text Only | Print | Product List | Glossary On
Versions: 1 2 3 4 5 6 7 8 9 10 11 12 13 14 15
000
FTPA31 PHFO 221511 AAA
TAFMDY
TAF AMD
PMDY 221511Z 2215/2312 15017KT P6SM VCSH SCT015 BKN035
      TEMPO 2217/2221 3SM -SHRA BR BKN025
     FM222100 18021KT 3SM SHRA BR VCTS SCT010 BKN020CB
     FM230300 21021KT 3SM SHRA BR VCTS SCT007 BKN015CB
     FM230900 24015KT P6SM VCSH SCT015 BKN025=

USA.gov is the U.S. government's official web portal to all federal, state and local government web resources and services.